Time;durP1;ratioP1;P1;durP2;ratioP2;P2;SDS_P1;SDS_P2;PMS_P1;PMS_P2;Temp;Humidity;BMP_temperature;BMP_pressure;BME280_temperature;BME280_humidity;BME280_pressure;Samples;Min_cycle;Max_cycle;Signal;HPM_P1;HPM_P2
2021/01/03 00:01:51;;;;;;;16.53;14.70;;;1.80;98.40;;;;;;5075168;28;20183;-74
2021/01/03 00:04:17;;;;;;;17.10;13.87;;;1.80;98.40;;;;;;5079817;28;20208;-73
2021/01/03 00:06:43;;;;;;;17.03;14.77;;;1.80;98.50;;;;;;5075760;28;20184;-73
2021/01/03 00:09:11;;;;;;;17.13;14.33;;;1.80;98.50;;;;;;5075489;28;20188;-72
2021/01/03 00:11:37;;;;;;;14.90;13.03;;;1.80;98.30;;;;;;5074817;28;20184;-72
2021/01/03 00:14:04;;;;;;;16.60;13.63;;;1.80;98.40;;;;;;5084894;28;20251;-72
2021/01/03 00:16:29;;;;;;;17.17;13.47;;;1.80;98.30;;;;;;5077133;28;20279;-73
2021/01/03 00:18:55;;;;;;;15.20;13.47;;;1.80;98.40;;;;;;5077769;28;20191;-72
2021/01/03 00:21:21;;;;;;;15.30;12.73;;;1.80;98.30;;;;;;5074448;28;20180;-72
2021/01/03 00:23:46;;;;;;;14.43;12.93;;;1.80;98.30;;;;;;5082309;28;20184;-72
2021/01/03 00:26:12;;;;;;;13.67;12.27;;;1.70;98.30;;;;;;5083599;28;20191;-72
2021/01/03 00:28:38;;;;;;;15.60;13.07;;;1.80;98.00;;;;;;5076182;28;20193;-72
2021/01/03 00:31:04;;;;;;;15.00;13.13;;;1.80;97.90;;;;;;5074837;28;20542;-72
2021/01/03 00:33:29;;;;;;;14.77;12.70;;;1.70;98.10;;;;;;5082443;28;20241;-72
2021/01/03 00:35:55;;;;;;;14.57;12.03;;;1.70;98.00;;;;;;5077539;28;20209;-72
2021/01/03 00:38:20;;;;;;;14.60;11.87;;;1.70;98.10;;;;;;5077149;28;20558;-72
2021/01/03 00:40:46;;;;;;;14.43;12.57;;;1.70;98.00;;;;;;5076280;28;20204;-72
2021/01/03 00:43:13;;;;;;;13.20;11.27;;;1.70;97.90;;;;;;5079355;28;20196;-72
2021/01/03 00:45:39;;;;;;;14.07;11.40;;;1.70;97.80;;;;;;5073597;28;20224;-72
2021/01/03 00:48:06;;;;;;;12.60;11.03;;;1.70;97.80;;;;;;5075615;28;20193;-72
2021/01/03 00:50:33;;;;;;;14.23;11.97;;;1.70;97.60;;;;;;5081289;28;20184;-72
2021/01/03 00:52:58;;;;;;;13.10;11.70;;;1.70;97.70;;;;;;5081617;28;20185;-72
2021/01/03 00:55:25;;;;;;;13.10;11.33;;;1.70;97.40;;;;;;5080343;28;20235;-73
2021/01/03 00:57:51;;;;;;;12.47;11.17;;;1.70;97.60;;;;;;5081402;28;20263;-73
2021/01/03 01:00:26;;;;;;;13.43;11.37;;;1.70;97.70;;;;;;5081446;28;20197;-73
2021/01/03 01:02:52;;;;;;;12.40;11.07;;;1.70;97.80;;;;;;5087992;28;20305;-73
2021/01/03 01:05:18;;;;;;;13.70;11.50;;;1.70;97.70;;;;;;5084382;28;20702;-72
2021/01/03 01:07:44;;;;;;;13.17;10.83;;;1.70;97.70;;;;;;5091878;28;20189;-71
2021/01/03 01:10:14;;;;;;;14.40;11.23;;;1.70;97.60;;;;;;5086039;28;20189;-71
2021/01/03 01:12:40;;;;;;;13.27;11.13;;;1.60;97.60;;;;;;5081220;28;20222;-71
2021/01/03 01:15:10;;;;;;;16.60;13.17;;;1.60;97.60;;;;;;5080438;28;20212;-71
2021/01/03 01:17:36;;;;;;;15.50;12.00;;;1.60;97.70;;;;;;5079048;28;20184;-71
2021/01/03 01:20:03;;;;;;;13.90;12.23;;;1.60;97.60;;;;;;5088616;28;20631;-72
2021/01/03 01:22:28;;;;;;;15.07;11.83;;;1.60;97.70;;;;;;5088609;28;20257;-71
2021/01/03 01:24:54;;;;;;;15.20;12.37;;;1.60;97.80;;;;;;5077868;28;20640;-71
2021/01/03 01:27:19;;;;;;;14.20;11.80;;;1.60;97.90;;;;;;5081808;28;20178;-72
2021/01/03 01:29:45;;;;;;;14.77;11.77;;;1.60;97.80;;;;;;5080999;28;20218;-71
2021/01/03 01:32:11;;;;;;;14.00;11.90;;;1.60;97.90;;;;;;5085126;28;20192;-72
2021/01/03 01:34:36;;;;;;;14.40;12.70;;;1.70;97.90;;;;;;5076989;28;20290;-71
2021/01/03 01:37:02;;;;;;;14.77;12.07;;;1.60;98.00;;;;;;5078476;28;20193;-72
2021/01/03 01:39:27;;;;;;;13.67;11.83;;;1.60;98.20;;;;;;5079633;28;20264;-72
2021/01/03 01:41:53;;;;;;;13.43;11.67;;;1.60;98.60;;;;;;5081333;28;20199;-72
2021/01/03 01:44:18;;;;;;;12.60;11.03;;;1.60;98.40;;;;;;5077510;28;20597;-71
2021/01/03 01:47:06;;;;;;;12.73;11.40;;;1.60;98.40;;;;;;5077883;28;20264;-73
2021/01/03 01:49:38;;;;;;;13.33;11.90;;;1.60;99.10;;;;;;5084199;28;20190;-71
2021/01/03 01:52:04;;;;;;;13.10;11.53;;;1.60;99.30;;;;;;5087050;28;20193;-72
2021/01/03 01:54:35;;;;;;;13.27;11.87;;;1.60;99.40;;;;;;5085142;28;20208;-72
2021/01/03 01:57:16;;;;;;;12.43;11.10;;;1.60;99.60;;;;;;5080928;28;20755;-73
2021/01/03 01:59:53;;;;;;;13.43;11.47;;;1.50;99.80;;;;;;5077165;28;20179;-73
2021/01/03 02:02:26;;;;;;;14.67;12.30;;;1.50;99.90;;;;;;5081741;28;20197;-71
2021/01/03 02:05:01;;;;;;;13.73;11.93;;;1.50;99.90;;;;;;5073294;28;20691;-73
2021/01/03 02:07:37;;;;;;;13.10;11.70;;;1.50;99.90;;;;;;5081246;28;20186;-72
2021/01/03 02:10:20;;;;;;;15.20;12.40;;;1.50;99.90;;;;;;5081503;28;20202;-72
2021/01/03 02:12:50;;;;;;;13.53;11.87;;;1.40;99.90;;;;;;5079504;28;20189;-72
2021/01/03 02:15:23;;;;;;;13.83;12.20;;;1.40;99.90;;;;;;5084503;28;20242;-72
2021/01/03 02:17:49;;;;;;;15.10;12.40;;;1.40;99.90;;;;;;5075358;28;20182;-72
2021/01/03 02:20:16;;;;;;;16.10;13.30;;;1.30;99.90;;;;;;5078701;28;20353;-72
2021/01/03 02:22:49;;;;;;;15.57;12.63;;;1.30;99.90;;;;;;5084534;28;20647;-72
2021/01/03 02:25:16;;;;;;;14.80;13.03;;;1.30;99.90;;;;;;5085191;28;20258;-72
2021/01/03 02:28:12;;;;;;;14.40;12.43;;;1.30;99.90;;;;;;5083425;28;20181;-73
2021/01/03 02:30:40;;;;;;;14.37;12.53;;;1.30;99.90;;;;;;5075508;28;20209;-72
2021/01/03 02:33:33;;;;;;;15.37;13.50;;;1.30;99.90;;;;;;5079258;28;20463;-72
2021/01/03 02:36:06;;;;;;;15.27;12.90;;;1.30;99.90;;;;;;5083356;28;20212;-72
2021/01/03 02:38:35;;;;;;;15.17;13.40;;;1.30;99.90;;;;;;5081101;28;20244;-72
2021/01/03 02:41:00;;;;;;;13.87;12.40;;;1.30;99.90;;;;;;5080806;28;20190;-73
2021/01/03 02:43:26;;;;;;;16.03;13.03;;;1.30;99.90;;;;;;5087988;28;20279;-72
2021/01/03 02:45:53;;;;;;;16.80;13.83;;;1.30;99.90;;;;;;5076995;28;20210;-71
2021/01/03 02:48:21;;;;;;;15.33;13.67;;;1.30;99.90;;;;;;5083530;28;20227;-72
2021/01/03 02:50:47;;;;;;;16.53;13.80;;;1.30;99.90;;;;;;5081332;28;20241;-72
2021/01/03 02:53:14;;;;;;;15.63;13.17;;;1.20;99.90;;;;;;5082435;28;20236;-71
2021/01/03 02:55:39;;;;;;;14.13;12.60;;;1.20;99.90;;;;;;5081089;28;20202;-71
2021/01/03 02:58:05;;;;;;;18.17;14.20;;;1.20;99.90;;;;;;5081864;28;20186;-72
2021/01/03 03:00:33;;;;;;;18.47;14.43;;;1.20;99.90;;;;;;5081997;28;20556;-73
2021/01/03 03:03:00;;;;;;;17.17;14.30;;;1.20;99.90;;;;;;5076528;28;20182;-73
2021/01/03 03:05:25;;;;;;;16.43;14.47;;;1.20;99.90;;;;;;5084787;28;20292;-73
2021/01/03 03:07:52;;;;;;;17.80;14.57;;;1.20;99.90;;;;;;5076063;28;20265;-72
2021/01/03 03:10:19;;;;;;;16.67;14.63;;;1.20;99.90;;;;;;5083951;28;20209;-72
2021/01/03 03:12:52;;;;;;;17.10;14.73;;;1.20;99.90;;;;;;5080825;28;20182;-73
2021/01/03 03:15:20;;;;;;;19.87;15.67;;;1.20;99.90;;;;;;5088896;28;20201;-73
2021/01/03 03:17:45;;;;;;;17.37;15.17;;;1.20;99.90;;;;;;5079260;28;20219;-73
2021/01/03 03:20:12;;;;;;;16.87;14.67;;;1.20;99.90;;;;;;5080749;28;20201;-73
2021/01/03 03:22:37;;;;;;;19.20;16.03;;;1.10;99.90;;;;;;5085439;28;20190;-71
2021/01/03 03:25:05;;;;;;;15.67;13.97;;;1.10;99.90;;;;;;5085188;28;20305;-71
2021/01/03 03:27:31;;;;;;;18.53;15.57;;;1.10;99.90;;;;;;5085657;28;20175;-72
2021/01/03 03:29:56;;;;;;;18.10;14.73;;;1.10;99.90;;;;;;5091653;28;20194;-72
2021/01/03 03:32:22;;;;;;;16.93;15.13;;;1.10;99.90;;;;;;5080729;28;20189;-72
2021/01/03 03:34:48;;;;;;;20.17;16.60;;;1.10;99.90;;;;;;5074994;28;20268;-72
2021/01/03 03:37:13;;;;;;;18.13;16.20;;;1.10;99.90;;;;;;5080298;28;20193;-71
2021/01/03 03:39:39;;;;;;;19.13;15.90;;;1.10;99.90;;;;;;5081464;28;20176;-71
2021/01/03 03:42:05;;;;;;;20.00;16.20;;;1.10;99.90;;;;;;5083157;28;20201;-72
2021/01/03 03:44:30;;;;;;;17.80;16.00;;;1.10;99.90;;;;;;5078993;28;20209;-72
2021/01/03 03:47:01;;;;;;;18.43;16.00;;;1.10;99.90;;;;;;5077916;28;20211;-71
2021/01/03 03:49:26;;;;;;;20.00;16.50;;;1.10;99.90;;;;;;5084285;28;21128;-71
2021/01/03 03:51:57;;;;;;;18.33;15.67;;;1.10;99.90;;;;;;5076554;28;20182;-71
2021/01/03 03:54:23;;;;;;;17.60;15.73;;;1.00;99.90;;;;;;5072790;28;20864;-71
2021/01/03 03:56:54;;;;;;;20.27;16.50;;;1.00;99.90;;;;;;5076662;28;20235;-72
2021/01/03 03:59:21;;;;;;;20.87;17.07;;;1.00;99.90;;;;;;5082424;28;20956;-72
2021/01/03 04:01:47;;;;;;;20.33;15.13;;;1.00;99.90;;;;;;5081559;28;20187;-71
2021/01/03 04:04:13;;;;;;;18.00;15.77;;;1.10;99.90;;;;;;5076110;28;20256;-72
2021/01/03 04:06:38;;;;;;;18.20;16.10;;;1.00;99.90;;;;;;5082833;28;20182;-71
2021/01/03 04:09:05;;;;;;;17.97;16.10;;;1.00;99.90;;;;;;5079542;28;20193;-71
2021/01/03 04:11:31;;;;;;;16.87;14.80;;;1.00;99.90;;;;;;5083259;28;20184;-71
2021/01/03 04:13:56;;;;;;;20.03;16.70;;;1.00;99.90;;;;;;5076320;28;20184;-72
2021/01/03 04:16:22;;;;;;;18.10;16.13;;;1.00;99.90;;;;;;5072930;28;20654;-71
2021/01/03 04:18:48;;;;;;;18.83;16.73;;;1.00;99.90;;;;;;5085334;28;20554;-72
2021/01/03 04:21:13;;;;;;;19.00;16.97;;;1.00;99.90;;;;;;5078095;28;20186;-72
2021/01/03 04:23:41;;;;;;;19.73;16.80;;;0.90;99.90;;;;;;5075919;28;20641;-71
2021/01/03 04:26:07;;;;;;;18.73;16.70;;;0.90;99.90;;;;;;5070543;28;20661;-71
2021/01/03 04:28:33;;;;;;;18.27;16.37;;;0.90;99.90;;;;;;5077333;28;20236;-71
2021/01/03 04:30:58;;;;;;;19.53;17.20;;;0.90;99.90;;;;;;5071223;28;20668;-73
2021/01/03 04:33:24;;;;;;;17.60;15.80;;;1.00;99.90;;;;;;5084580;28;20221;-71
2021/01/03 04:35:50;;;;;;;20.30;16.50;;;1.00;99.90;;;;;;5088474;28;21625;-71
2021/01/03 04:38:17;;;;;;;20.80;17.43;;;1.00;99.90;;;;;;5080701;28;20194;-71
2021/01/03 04:40:42;;;;;;;19.30;16.00;;;1.00;99.90;;;;;;5088908;28;20180;-71
2021/01/03 04:43:15;;;;;;;20.53;18.13;;;1.00;99.90;;;;;;5083539;28;20191;-71
2021/01/03 04:45:42;;;;;;;20.60;17.60;;;1.00;99.90;;;;;;5080850;28;20226;-72
2021/01/03 04:48:24;;;;;;;20.80;17.97;;;1.00;99.90;;;;;;5085294;28;20183;-72
2021/01/03 04:50:50;;;;;;;23.52;21.40;;;1.00;99.90;;;;;;5082015;28;20411;-71
2021/01/03 04:53:34;;;;;;;22.13;19.83;;;1.00;99.90;;;;;;5086810;28;20206;-72
2021/01/03 04:56:14;;;;;;;19.20;17.20;;;1.10;99.90;;;;;;5081993;28;20208;-70
2021/01/03 04:59:05;;;;;;;21.50;17.13;;;1.10;99.90;;;;;;5081951;28;20671;-72
2021/01/03 05:01:55;;;;;;;20.63;17.67;;;1.10;99.90;;;;;;5087533;28;20847;-72
2021/01/03 05:04:43;;;;;;;20.93;18.30;;;1.10;99.90;;;;;;5083103;28;20202;-73
2021/01/03 05:07:31;;;;;;;19.90;17.00;;;1.10;99.90;;;;;;5084942;28;20205;-72
2021/01/03 05:10:06;;;;;;;22.10;17.20;;;1.10;99.90;;;;;;5085097;28;20630;-71
2021/01/03 05:13:20;;;;;;;21.40;17.50;;;1.10;99.90;;;;;;5086482;28;20190;-71
2021/01/03 05:15:47;;;;;;;20.83;17.40;;;1.10;99.90;;;;;;5080449;28;20606;-72
2021/01/03 05:18:13;;;;;;;21.50;16.87;;;1.10;99.90;;;;;;5079102;28;20208;-73
2021/01/03 05:20:39;;;;;;;19.07;17.07;;;1.10;99.90;;;;;;5083523;28;20197;-72
2021/01/03 05:23:18;;;;;;;18.97;16.90;;;1.20;99.90;;;;;;5083939;28;20190;-72
2021/01/03 05:25:45;;;;;;;20.50;18.17;;;1.10;99.90;;;;;;5085648;28;20743;-73
2021/01/03 05:28:36;;;;;;;22.10;17.90;;;1.10;99.90;;;;;;5082794;28;20188;-72
2021/01/03 05:31:17;;;;;;;22.30;19.07;;;1.10;99.90;;;;;;5076751;28;20549;-72
2021/01/03 05:34:04;;;;;;;20.83;17.60;;;1.10;99.90;;;;;;5081388;28;20227;-72
2021/01/03 05:36:45;;;;;;;22.03;19.73;;;1.10;99.90;;;;;;5080584;28;20246;-71
2021/01/03 05:39:32;;;;;;;22.90;20.17;;;1.10;99.90;;;;;;5075702;28;20187;-71
2021/01/03 05:42:12;;;;;;;26.17;19.37;;;1.20;99.90;;;;;;5082230;28;20600;-71
2021/01/03 05:44:41;;;;;;;22.97;20.03;;;1.10;99.90;;;;;;5080092;28;20237;-71
2021/01/03 05:47:17;;;;;;;22.83;20.00;;;1.10;99.90;;;;;;5078023;28;20178;-72
2021/01/03 05:49:44;;;;;;;22.97;19.90;;;1.20;99.90;;;;;;5090026;28;20227;-72
2021/01/03 05:52:21;;;;;;;22.13;19.73;;;1.20;99.90;;;;;;5083290;28;20255;-71
2021/01/03 05:54:48;;;;;;;25.00;19.53;;;1.20;99.90;;;;;;5082518;28;20199;-72
2021/01/03 05:57:29;;;;;;;21.63;18.37;;;1.20;99.90;;;;;;5080383;28;20571;-71
2021/01/03 05:59:55;;;;;;;21.53;19.13;;;1.20;99.90;;;;;;5082551;28;20180;-72
2021/01/03 06:02:29;;;;;;;22.23;19.07;;;1.20;99.90;;;;;;5077298;28;20626;-72
2021/01/03 06:05:05;;;;;;;22.13;19.57;;;1.20;99.90;;;;;;5086932;28;20310;-72
2021/01/03 06:07:32;;;;;;;20.20;18.00;;;1.20;99.90;;;;;;5075498;28;20212;-72
2021/01/03 06:09:57;;;;;;;20.10;17.70;;;1.20;99.90;;;;;;5087323;28;20230;-72
2021/01/03 06:12:26;;;;;;;20.03;17.93;;;1.20;99.90;;;;;;5077193;28;20656;-73
2021/01/03 06:15:00;;;;;;;20.97;18.60;;;1.20;99.90;;;;;;5086005;28;20205;-71
2021/01/03 06:17:43;;;;;;;20.50;18.30;;;1.20;99.90;;;;;;5083949;28;20180;-72
2021/01/03 06:20:26;;;;;;;21.37;18.47;;;1.20;99.90;;;;;;5083577;28;20199;-72
2021/01/03 06:23:27;;;;;;;21.70;18.37;;;1.20;99.90;;;;;;5073057;28;20194;-72
2021/01/03 06:26:19;;;;;;;22.77;19.17;;;1.20;99.90;;;;;;5086281;28;20724;-72
2021/01/03 06:28:50;;;;;;;22.30;19.90;;;1.10;99.90;;;;;;5078328;28;20661;-72
2021/01/03 06:31:41;;;;;;;23.47;19.87;;;1.10;99.90;;;;;;5088038;28;20180;-73
2021/01/03 06:34:15;;;;;;;23.40;19.80;;;1.10;99.90;;;;;;5085083;28;20601;-72
2021/01/03 06:37:06;;;;;;;24.83;20.47;;;1.10;99.90;;;;;;5081998;28;20184;-72
2021/01/03 06:39:31;;;;;;;23.43;20.33;;;1.10;99.90;;;;;;5081686;28;20672;-73
2021/01/03 06:42:01;;;;;;;24.60;20.83;;;1.10;99.90;;;;;;5078623;28;20172;-72
2021/01/03 06:44:48;;;;;;;23.87;19.83;;;1.10;99.90;;;;;;5087449;28;20253;-73
2021/01/03 06:47:49;;;;;;;24.40;20.97;;;1.10;99.90;;;;;;5081502;28;20189;-72
2021/01/03 06:50:20;;;;;;;22.03;19.10;;;1.10;99.90;;;;;;5080413;28;20180;-72
2021/01/03 06:53:21;;;;;;;24.10;20.10;;;1.10;99.90;;;;;;5085108;28;20251;-72
2021/01/03 06:55:50;;;;;;;24.53;20.53;;;1.10;99.90;;;;;;5082434;28;20659;-71
2021/01/03 06:58:34;;;;;;;25.30;21.60;;;1.10;99.90;;;;;;5083257;28;20183;-71
2021/01/03 07:01:18;;;;;;;21.70;19.40;;;1.10;99.90;;;;;;5081797;28;20684;-72
2021/01/03 07:03:49;;;;;;;23.87;20.70;;;1.10;99.90;;;;;;5084777;28;20186;-71
2021/01/03 07:06:15;;;;;;;24.07;20.90;;;1.10;99.90;;;;;;5088092;28;20216;-71
2021/01/03 07:08:52;;;;;;;24.57;20.80;;;1.10;99.90;;;;;;5079265;28;20604;-72
2021/01/03 07:11:44;;;;;;;22.73;20.20;;;1.10;99.90;;;;;;5077575;28;20181;-73
2021/01/03 07:14:22;;;;;;;22.43;19.33;;;1.10;99.90;;;;;;5073388;28;20206;-71
2021/01/03 07:16:55;;;;;;;23.10;19.83;;;1.10;99.90;;;;;;5077772;28;20663;-71
2021/01/03 07:19:29;;;;;;;21.97;19.57;;;1.10;99.90;;;;;;5081910;28;20198;-72
2021/01/03 07:21:57;;;;;;;26.27;20.77;;;1.10;99.90;;;;;;5083103;28;20920;-72
2021/01/03 07:24:31;;;;;;;24.03;20.03;;;1.10;99.90;;;;;;5080817;28;20684;-72
2021/01/03 07:27:15;;;;;;;22.67;19.33;;;1.10;99.90;;;;;;5079391;28;20178;-72
2021/01/03 07:29:55;;;;;;;24.00;20.47;;;1.10;99.90;;;;;;5085334;28;20185;-72
2021/01/03 07:32:40;;;;;;;24.50;19.70;;;1.10;99.90;;;;;;5080766;28;20182;-72
2021/01/03 07:35:21;;;;;;;23.17;20.00;;;1.10;99.90;;;;;;5082644;28;20199;-72
2021/01/03 07:37:47;;;;;;;27.37;21.50;;;1.10;99.90;;;;;;5081126;28;20189;-71
2021/01/03 07:40:23;;;;;;;24.03;20.40;;;1.10;99.90;;;;;;5078995;28;20194;-72
2021/01/03 07:42:52;;;;;;;23.00;19.37;;;1.20;99.90;;;;;;5085889;28;20182;-73
2021/01/03 07:45:40;;;;;;;25.67;20.33;;;1.20;99.90;;;;;;5080991;28;20289;-72
2021/01/03 07:48:33;;;;;;;24.93;20.93;;;1.20;99.90;;;;;;5072575;28;20188;-72
2021/01/03 07:50:59;;;;;;;24.77;21.03;;;1.20;99.90;;;;;;5085253;28;20184;-72
2021/01/03 07:53:26;;;;;;;26.33;22.40;;;1.20;99.90;;;;;;5076395;28;20667;-72
2021/01/03 07:55:53;;;;;;;26.33;23.50;;;1.20;99.90;;;;;;5076582;28;20206;-72
2021/01/03 07:58:24;;;;;;;22.97;20.43;;;1.30;99.90;;;;;;5072909;28;20180;-73
2021/01/03 08:00:55;;;;;;;21.90;19.23;;;1.30;99.90;;;;;;5076041;28;20191;-72
2021/01/03 08:03:24;;;;;;;21.97;18.50;;;1.30;99.90;;;;;;5080323;28;20263;-74
2021/01/03 08:05:50;;;;;;;23.83;20.20;;;1.30;99.90;;;;;;5076342;28;20265;-72
2021/01/03 08:08:28;;;;;;;21.23;18.60;;;1.40;99.90;;;;;;5073148;28;20179;-73
2021/01/03 08:11:14;;;;;;;22.63;19.07;;;1.40;99.90;;;;;;5078164;28;20664;-73
2021/01/03 08:13:45;;;;;;;20.30;18.03;;;1.40;99.90;;;;;;5078490;28;20260;-72
2021/01/03 08:16:11;;;;;;;20.30;18.07;;;1.50;99.90;;;;;;5072098;28;20319;-72
2021/01/03 08:18:53;;;;;;;20.63;17.97;;;1.50;99.90;;;;;;5079771;28;20182;-72
2021/01/03 08:21:19;;;;;;;20.37;17.80;;;1.60;99.90;;;;;;5083934;28;20186;-72
2021/01/03 08:23:45;;;;;;;20.70;18.50;;;1.60;99.90;;;;;;5088094;28;20267;-72
2021/01/03 08:26:12;;;;;;;23.50;20.30;;;1.70;99.90;;;;;;5086214;28;20266;-72
2021/01/03 08:29:04;;;;;;;22.67;18.27;;;1.80;99.90;;;;;;5084612;28;20189;-72
2021/01/03 08:31:31;;;;;;;19.73;17.03;;;1.80;99.90;;;;;;5071579;28;20573;-72
2021/01/03 08:33:59;;;;;;;21.53;17.60;;;1.80;99.90;;;;;;5072280;28;20183;-72
2021/01/03 08:36:30;;;;;;;23.23;19.20;;;1.90;99.90;;;;;;5072482;28;20267;-73
2021/01/03 08:39:05;;;;;;;23.40;18.77;;;2.00;99.90;;;;;;5082001;28;20198;-72
2021/01/03 08:41:36;;;;;;;21.33;17.53;;;2.00;99.90;;;;;;5072751;28;20216;-71
2021/01/03 08:44:04;;;;;;;19.13;17.10;;;2.00;99.90;;;;;;5075882;28;20185;-71
2021/01/03 08:46:33;;;;;;;21.03;16.60;;;2.10;99.90;;;;;;5074223;28;20652;-72
2021/01/03 08:49:07;;;;;;;20.13;16.97;;;2.10;99.90;;;;;;5079868;28;20207;-72
2021/01/03 08:51:34;;;;;;;20.50;16.77;;;2.10;99.90;;;;;;5078889;28;20266;-72
2021/01/03 08:54:08;;;;;;;19.93;17.70;;;2.10;99.90;;;;;;5073795;28;20210;-71
2021/01/03 08:56:46;;;;;;;18.03;16.03;;;2.20;99.90;;;;;;5077374;28;20264;-72
2021/01/03 08:59:14;;;;;;;18.37;16.37;;;2.30;99.90;;;;;;5072001;28;20206;-72
2021/01/03 09:01:40;;;;;;;17.73;15.83;;;2.30;99.90;;;;;;5083507;28;20179;-71
2021/01/03 09:04:13;;;;;;;19.53;17.43;;;2.30;99.40;;;;;;5074044;28;20898;-71
2021/01/03 09:06:39;;;;;;;20.03;17.83;;;2.30;99.90;;;;;;5076596;28;21731;-72
2021/01/03 09:09:29;;;;;;;20.40;18.20;;;2.30;99.90;;;;;;5080364;28;20185;-72
2021/01/03 09:12:03;;;;;;;21.37;18.03;;;2.30;99.80;;;;;;5074401;28;20188;-71
2021/01/03 09:14:44;;;;;;;20.47;17.90;;;2.40;99.70;;;;;;5075516;28;20637;-71
2021/01/03 09:17:26;;;;;;;20.03;17.93;;;2.50;99.80;;;;;;5075149;28;20242;-71
2021/01/03 09:19:58;;;;;;;20.53;16.90;;;2.50;99.40;;;;;;5087070;28;20595;-71
2021/01/03 09:22:31;;;;;;;20.60;17.53;;;2.50;99.30;;;;;;5088164;28;20180;-71
2021/01/03 09:25:03;;;;;;;21.00;18.63;;;2.40;99.30;;;;;;5082073;28;20224;-71
2021/01/03 09:27:31;;;;;;;19.20;17.03;;;2.40;99.70;;;;;;5080110;28;20536;-71
2021/01/03 09:30:20;;;;;;;20.67;18.23;;;2.50;99.70;;;;;;5085066;28;20289;-71
2021/01/03 09:32:51;;;;;;;18.90;16.93;;;2.60;99.10;;;;;;5080083;28;20187;-71
2021/01/03 09:35:24;;;;;;;18.33;16.37;;;2.70;98.70;;;;;;5081893;28;20193;-71
2021/01/03 09:38:17;;;;;;;22.97;17.93;;;2.70;99.10;;;;;;5081809;28;20271;-72
2021/01/03 09:40:55;;;;;;;19.53;17.43;;;2.70;98.10;;;;;;5080544;28;20203;-72
2021/01/03 09:43:37;;;;;;;19.03;17.03;;;2.70;98.30;;;;;;5080093;28;20660;-72
2021/01/03 09:46:16;;;;;;;21.33;18.47;;;2.80;97.90;;;;;;5083989;28;20287;-71
2021/01/03 09:48:41;;;;;;;19.00;17.00;;;2.80;98.00;;;;;;5079220;28;20170;-72
2021/01/03 09:51:21;;;;;;;18.83;16.87;;;2.70;98.40;;;;;;5087754;28;20279;-70
2021/01/03 09:53:55;;;;;;;20.97;16.93;;;2.80;98.20;;;;;;5093633;28;20248;-70
2021/01/03 09:56:29;;;;;;;18.73;16.83;;;2.80;98.10;;;;;;5088879;28;20205;-72
2021/01/03 09:58:55;;;;;;;20.90;16.87;;;2.80;97.60;;;;;;5087164;28;20203;-71
2021/01/03 10:01:31;;;;;;;20.67;18.03;;;2.70;97.30;;;;;;5087038;28;20653;-72
2021/01/03 10:04:16;;;;;;;19.47;17.37;;;2.70;97.90;;;;;;5084498;28;20197;-72
2021/01/03 10:06:44;;;;;;;20.20;17.40;;;2.70;98.20;;;;;;5086912;28;20533;-72
2021/01/03 10:09:10;;;;;;;19.73;17.27;;;2.70;98.00;;;;;;5084768;28;20204;-71
2021/01/03 10:11:36;;;;;;;20.70;17.90;;;2.70;98.60;;;;;;5079923;28;20650;-73
2021/01/03 10:14:05;;;;;;;19.53;17.37;;;2.70;98.10;;;;;;5083080;28;20194;-71
2021/01/03 10:16:32;;;;;;;21.27;18.83;;;2.50;97.40;;;;;;5087601;28;20179;-72
2021/01/03 10:18:58;;;;;;;24.30;19.67;;;2.50;98.10;;;;;;5079677;28;20660;-71
2021/01/03 10:21:38;;;;;;;23.40;19.03;;;2.40;98.40;;;;;;5076748;28;20188;-72
2021/01/03 10:24:18;;;;;;;23.23;18.53;;;2.30;98.00;;;;;;5074004;28;20187;-71
2021/01/03 10:27:12;;;;;;;22.43;19.17;;;2.30;98.50;;;;;;5075536;28;20183;-72
2021/01/03 10:29:38;;;;;;;23.00;18.03;;;2.30;98.80;;;;;;5077820;28;20225;-72
2021/01/03 10:32:04;;;;;;;22.90;18.20;;;2.30;98.80;;;;;;5084851;28;20827;-71
2021/01/03 10:34:30;;;;;;;26.97;20.93;;;2.40;99.00;;;;;;5083511;28;20199;-70
2021/01/03 10:36:59;;;;;;;27.23;21.60;;;2.40;98.90;;;;;;5095021;28;20187;-72
2021/01/03 10:39:27;;;;;;;27.53;21.63;;;2.40;98.60;;;;;;5095808;28;20188;-72
2021/01/03 10:41:53;;;;;;;22.80;19.60;;;2.50;98.20;;;;;;5087934;28;20179;-73
2021/01/03 10:44:19;;;;;;;25.67;19.93;;;2.40;98.10;;;;;;5097374;28;20798;-71
2021/01/03 10:46:47;;;;;;;25.70;20.80;;;2.50;98.40;;;;;;5093437;28;20195;-71
2021/01/03 10:49:13;;;;;;;24.97;22.13;;;2.50;98.50;;;;;;5085753;28;20258;-71
2021/01/03 10:51:41;;;;;;;28.07;21.83;;;2.50;98.50;;;;;;5084622;28;20660;-71
2021/01/03 10:54:09;;;;;;;25.17;20.70;;;2.50;97.80;;;;;;5104254;28;20188;-72
2021/01/03 10:56:36;;;;;;;26.97;21.23;;;2.50;98.70;;;;;;5088608;28;20885;-71
2021/01/03 10:59:03;;;;;;;24.47;17.67;;;2.50;98.20;;;;;;5075282;28;20306;-72
2021/01/03 11:01:29;;;;;;;26.67;22.03;;;2.60;97.40;;;;;;5088206;28;20650;-71
2021/01/03 11:03:54;;;;;;;19.63;17.27;;;2.60;97.80;;;;;;5099541;28;20193;-71
2021/01/03 11:06:20;;;;;;;20.13;17.67;;;2.60;97.50;;;;;;5083366;28;20621;-71
2021/01/03 11:08:46;;;;;;;21.83;17.20;;;2.50;97.60;;;;;;5089465;28;20182;-69
2021/01/03 11:11:20;;;;;;;21.80;17.93;;;2.50;97.70;;;;;;5089236;28;20187;-71
2021/01/03 11:13:47;;;;;;;24.03;19.63;;;2.50;98.10;;;;;;5095793;28;20177;-72
2021/01/03 11:16:12;;;;;;;22.33;16.97;;;2.60;98.60;;;;;;5098928;28;20529;-71
2021/01/03 11:18:38;;;;;;;22.43;17.13;;;2.60;97.80;;;;;;5093992;28;20193;-70
2021/01/03 11:21:10;;;;;;;22.97;18.53;;;2.60;97.60;;;;;;5089531;28;20213;-70
2021/01/03 11:23:37;;;;;;;19.07;16.67;;;2.50;97.50;;;;;;5090930;28;20234;-69
2021/01/03 11:26:03;;;;;;;22.02;19.73;;;2.50;97.60;;;;;;5089514;28;20847;-70
2021/01/03 11:28:28;;;;;;;20.67;17.37;;;2.50;98.60;;;;;;5092797;28;20257;-70
2021/01/03 11:30:54;;;;;;;22.70;17.07;;;2.50;98.20;;;;;;5097838;28;20635;-69
2021/01/03 11:33:20;;;;;;;21.37;17.57;;;2.50;97.70;;;;;;5088903;28;20182;-69
2021/01/03 11:35:45;;;;;;;54.13;35.90;;;2.60;97.10;;;;;;5099348;28;20214;-70
2021/01/03 11:38:11;;;;;;;22.83;16.33;;;2.60;96.80;;;;;;5096172;28;20183;-70
2021/01/03 11:40:37;;;;;;;18.37;16.30;;;2.60;96.30;;;;;;5098726;28;20191;-71
2021/01/03 11:43:03;;;;;;;19.80;16.27;;;2.60;96.60;;;;;;5091509;28;20552;-69
2021/01/03 11:45:28;;;;;;;20.10;17.27;;;2.60;96.90;;;;;;5085038;28;20557;-69
2021/01/03 11:47:54;;;;;;;20.53;18.00;;;2.60;97.00;;;;;;5086053;28;20202;-70
2021/01/03 11:50:23;;;;;;;19.80;17.43;;;2.60;96.50;;;;;;5078261;28;20268;-69
2021/01/03 11:52:48;;;;;;;23.67;19.33;;;2.60;96.70;;;;;;5109640;27;20255;-70
2021/01/03 11:55:17;;;;;;;26.93;21.53;;;2.70;96.70;;;;;;5103101;28;20697;-69
2021/01/03 11:57:43;;;;;;;23.57;20.23;;;2.70;97.20;;;;;;5095387;28;20185;-69
2021/01/03 12:00:11;;;;;;;21.93;19.27;;;2.70;97.20;;;;;;5086852;28;20190;-70
2021/01/03 12:02:36;;;;;;;20.57;17.93;;;2.80;96.90;;;;;;5094571;28;20566;-68
2021/01/03 12:05:04;;;;;;;21.77;18.77;;;2.80;96.60;;;;;;5099413;28;20210;-70
2021/01/03 12:07:30;;;;;;;19.93;17.80;;;2.80;97.20;;;;;;5092126;28;20194;-70
2021/01/03 12:09:55;;;;;;;19.53;17.43;;;2.80;97.30;;;;;;5090223;28;20183;-70
2021/01/03 12:12:22;;;;;;;18.80;16.90;;;2.80;97.20;;;;;;5105157;28;20189;-69
2021/01/03 12:14:48;;;;;;;25.73;22.07;;;2.80;96.90;;;;;;5088822;28;20236;-69
2021/01/03 12:17:17;;;;;;;23.23;20.63;;;2.80;96.80;;;;;;5088443;28;20663;-68
2021/01/03 12:19:48;;;;;;;19.00;16.93;;;2.80;96.80;;;;;;5087559;28;20198;-71
2021/01/03 12:22:14;;;;;;;21.43;17.60;;;2.80;96.70;;;;;;5099034;28;20199;-71
2021/01/03 12:24:40;;;;;;;20.03;15.97;;;2.80;97.00;;;;;;5089019;28;20235;-71
2021/01/03 12:27:12;;;;;;;19.60;16.00;;;2.90;96.70;;;;;;5094624;28;20196;-70
2021/01/03 12:29:38;;;;;;;17.93;15.77;;;2.80;96.90;;;;;;5088064;28;20185;-71
2021/01/03 12:32:07;;;;;;;25.57;20.33;;;2.90;97.10;;;;;;5086206;28;20246;-71
2021/01/03 12:34:33;;;;;;;20.77;18.40;;;2.90;97.60;;;;;;5100431;28;20664;-70
2021/01/03 12:37:05;;;;;;;21.07;17.57;;;2.90;97.00;;;;;;5096110;28;20180;-70
2021/01/03 12:39:31;;;;;;;20.00;17.90;;;2.90;96.70;;;;;;5090371;28;20217;-71
2021/01/03 12:41:57;;;;;;;18.83;16.83;;;3.00;96.90;;;;;;5086259;28;20188;-71
2021/01/03 12:44:23;;;;;;;23.97;19.33;;;3.20;96.90;;;;;;5097696;28;20211;-71
2021/01/03 12:46:48;;;;;;;20.23;17.87;;;3.10;96.00;;;;;;5089677;28;20237;-70
2021/01/03 12:49:15;;;;;;;22.13;20.13;;;3.20;95.90;;;;;;5102555;28;20510;-71
2021/01/03 12:51:41;;;;;;;19.60;17.60;;;3.30;95.80;;;;;;5087516;28;20195;-71
2021/01/03 12:54:07;;;;;;;17.80;16.00;;;3.30;95.70;;;;;;5090397;28;20202;-70
2021/01/03 12:56:34;;;;;;;18.57;16.57;;;3.20;95.50;;;;;;5092317;28;20194;-71